createdAt,value
2022-12-24T00:04:08.698Z,78.87
2022-12-24T00:09:11.498Z,78.92
2022-12-24T00:14:14.291Z,78.46
2022-12-24T00:24:44.285Z,78.46
2022-12-24T00:29:47.400Z,78.15
2022-12-24T00:34:50.702Z,77.90
2022-12-24T00:39:58.861Z,78.11
2022-12-24T00:45:01.610Z,78.29
2022-12-24T00:55:29.012Z,78.59
2022-12-24T01:00:32.184Z,78.54
2022-12-24T01:05:34.978Z,78.33
2022-12-24T01:10:43.065Z,78.26
2022-12-24T01:15:45.997Z,78.50
2022-12-24T01:20:57.628Z,78.43
2022-12-24T01:26:06.663Z,78.84
2022-12-24T01:31:14.023Z,79.05
2022-12-24T01:36:17.088Z,79.19
2022-12-24T01:41:26.153Z,79.15
2022-12-24T01:46:32.876Z,79.40
2022-12-24T01:51:41.018Z,79.38
2022-12-24T01:56:54.068Z,79.25
2022-12-24T02:01:57.218Z,79.34
2022-12-24T02:07:00.304Z,79.12
2022-12-24T02:12:12.141Z,79.32
2022-12-24T02:17:22.152Z,79.57
2022-12-24T02:27:58.043Z,79.70
2022-12-24T02:33:32.023Z,79.88
2022-12-24T02:38:40.399Z,79.85
2022-12-24T02:43:47.608Z,79.92
2022-12-24T02:48:57.821Z,79.80
2022-12-24T02:54:00.895Z,79.82
2022-12-24T02:59:27.524Z,79.66
2022-12-24T03:04:47.740Z,79.84
2022-12-24T03:15:30.811Z,79.73
2022-12-24T03:20:38.009Z,79.72
2022-12-24T03:25:43.643Z,79.66
2022-12-24T03:30:51.793Z,79.55
2022-12-24T03:41:19.420Z,79.71
2022-12-24T03:46:22.373Z,79.73
2022-12-24T03:51:26.767Z,79.73
2022-12-24T09:13:27.226Z,81.94
2022-12-24T09:18:30.273Z,81.92
2022-12-24T09:23:35.629Z,82.04
2022-12-24T10:05:42.599Z,82.29
2022-12-24T10:17:18.558Z,82.22
2022-12-24T11:07:30.141Z,82.04
2022-12-24T11:12:40.473Z,82.03
2022-12-24T11:17:48.652Z,81.92
2022-12-24T12:22:01.732Z,80.98
2022-12-24T12:27:20.683Z,81.11
2022-12-24T13:23:29.270Z,80.96
2022-12-24T13:28:35.189Z,80.96
2022-12-24T13:34:04.967Z,80.81
2022-12-24T14:41:35.237Z,80.32
2022-12-24T15:12:55.371Z,80.66
2022-12-24T16:31:47.112Z,81.33
2022-12-24T16:36:50.130Z,81.67
2022-12-24T16:41:53.058Z,81.63
2022-12-24T16:47:01.932Z,81.80
2022-12-24T16:52:05.245Z,81.74
2022-12-24T16:57:08.039Z,81.62
2022-12-24T17:02:18.591Z,81.74
2022-12-24T17:12:47.106Z,81.83
2022-12-24T17:17:49.946Z,82.22
2022-12-24T17:22:53.055Z,82.32
2022-12-24T17:28:01.108Z,82.23
2022-12-24T17:33:08.090Z,82.24
2022-12-24T17:38:13.693Z,81.94
2022-12-24T17:43:21.850Z,81.90
2022-12-24T17:48:24.745Z,82.15
2022-12-24T17:53:27.661Z,82.04
2022-12-24T17:58:35.982Z,82.03
2022-12-24T18:03:38.913Z,82.31
2022-12-24T18:08:43.025Z,82.00
2022-12-24T18:29:58.863Z,81.61
2022-12-24T18:40:57.976Z,82.14
2022-12-24T18:46:08.072Z,82.38
2022-12-24T20:14:35.772Z,82.67
2022-12-24T20:30:36.868Z,82.85
2022-12-24T21:13:19.049Z,82.68
2022-12-24T21:18:21.856Z,83.18
2022-12-24T21:23:24.627Z,83.09
2022-12-24T21:44:41.622Z,83.05
2022-12-24T21:49:44.488Z,83.40
2022-12-24T21:54:47.323Z,83.24
2022-12-24T22:10:45.623Z,83.11
2022-12-24T22:15:50.451Z,83.39
2022-12-24T22:41:46.323Z,83.03
2022-12-24T22:52:13.795Z,83.06
2022-12-24T23:08:00.588Z,83.14
2022-12-24T23:29:28.775Z,83.10
